Time;durP1;ratioP1;P1;durP2;ratioP2;P2;SDS_P1;SDS_P2;PMS_P1;PMS_P2;Temp;Humidity;BMP_temperature;BMP_pressure;BME280_temperature;BME280_humidity;BME280_pressure;Samples;Min_cycle;Max_cycle;Signal;HPM_P1;HPM_P2
2023/08/12 00:00:07;;;;;;;8.70;4.80;;;;;;;24.68;59.28;100131.43;108244;1253;60181;-67
2023/08/12 00:02:35;;;;;;;13.80;5.20;;;;;;;24.66;59.32;100125.45;108271;1253;72919;-67
2023/08/12 00:05:03;;;;;;;6.90;5.10;;;;;;;24.80;58.74;100127.92;108281;1252;70192;-67
2023/08/12 00:07:30;;;;;;;8.70;4.80;;;;;;;24.67;59.13;100123.19;108282;1252;72521;-68
2023/08/12 00:09:57;;;;;;;9.90;5.40;;;;;;;24.68;59.13;100126.90;108252;1252;61991;-68
2023/08/12 00:12:23;;;;;;;5.40;4.60;;;;;;;24.64;59.17;100121.41;108242;1253;59779;-67
2023/08/12 00:14:50;;;;;;;7.70;5.50;;;;;;;24.61;59.17;100120.64;108346;1252;72993;-69
2023/08/12 00:17:17;;;;;;;6.30;5.30;;;;;;;24.48;59.36;100116.60;108293;1253;70021;-68
2023/08/12 00:19:44;;;;;;;6.80;5.30;;;;;;;24.52;59.36;100118.04;108238;1253;71256;-68
2023/08/12 00:22:11;;;;;;;7.60;5.10;;;;;;;24.72;58.82;100112.91;108266;1253;61765;-68
2023/08/12 00:24:37;;;;;;;7.20;5.00;;;;;;;24.69;58.74;100111.04;108238;1252;59517;-68
2023/08/12 00:27:04;;;;;;;10.60;5.90;;;;;;;24.65;58.74;100107.08;108079;1253;73098;-69
2023/08/12 00:29:30;;;;;;;7.80;5.20;;;;;;;24.63;58.76;100112.50;108108;1252;70464;-68
2023/08/12 00:31:59;;;;;;;7.90;5.40;;;;;;;24.52;59.20;100113.21;108193;1253;72484;-67
2023/08/12 00:34:25;;;;;;;8.50;5.20;;;;;;;24.66;58.67;100109.91;108257;1252;62003;-67
2023/08/12 00:36:52;;;;;;;8.30;5.00;;;;;;;24.49;59.05;100107.52;108302;1254;60061;-68
2023/08/12 00:39:19;;;;;;;7.80;5.10;;;;;;;24.24;59.88;100106.84;108272;1253;73168;-68
2023/08/12 00:41:46;;;;;;;9.70;5.90;;;;;;;24.06;60.50;100106.54;108235;1253;70343;-68
2023/08/12 00:44:13;;;;;;;8.60;5.90;;;;;;;24.24;60.08;100107.45;108102;1253;72747;-68
2023/08/12 00:46:40;;;;;;;7.70;5.10;;;;;;;24.18;60.28;100108.91;108214;1252;62069;-68
2023/08/12 00:49:09;;;;;;;8.50;5.20;;;;;;;24.21;60.23;100110.39;108323;1253;60518;-68
2023/08/12 00:51:35;;;;;;;10.10;5.20;;;;;;;24.26;59.93;100111.52;108098;1252;72787;-68
2023/08/12 00:54:02;;;;;;;8.20;4.80;;;;;;;24.12;60.28;100110.83;108115;1253;70304;-68
2023/08/12 00:56:29;;;;;;;7.90;5.10;;;;;;;24.08;60.56;100108.17;108075;1252;72323;-68
2023/08/12 00:59:01;;;;;;;8.50;4.90;;;;;;;24.18;60.28;100110.54;108147;1256;61902;-69
2023/08/12 01:01:28;;;;;;;8.60;5.10;;;;;;;24.11;60.22;100107.00;108137;1252;60230;-68
2023/08/12 01:03:55;;;;;;;10.30;5.50;;;;;;;23.89;61.12;100103.51;108141;1252;72996;-67
2023/08/12 01:06:22;;;;;;;9.80;5.70;;;;;;;24.09;60.40;100105.23;108178;1253;70138;-68
2023/08/12 01:08:48;;;;;;;10.20;5.70;;;;;;;24.01;60.52;100106.30;108204;1252;72586;-69
2023/08/12 01:11:44;;;;;;;13.40;6.20;;;;;;;23.95;60.71;100106.34;108233;1252;59644;-66
2023/08/12 01:14:29;;;;;;;7.50;5.30;;;;;;;24.03;60.35;100105.19;107986;1253;60440;-68
2023/08/12 01:17:00;;;;;;;9.40;5.20;;;;;;;24.00;60.51;100108.73;108073;1253;72821;-67
2023/08/12 01:19:30;;;;;;;;;;;;;;;23.78;61.08;100111.15;108104;1253;70108;-68
2023/08/12 01:22:00;;;;;;;12.10;5.90;;;;;;;23.85;60.91;100112.71;108052;1253;71394;-67
2023/08/12 01:24:26;;;;;;;7.10;5.50;;;;;;;23.91;60.72;100111.38;107903;1253;61826;-68
2023/08/12 01:26:55;;;;;;;12.00;5.90;;;;;;;23.94;60.42;100111.60;108127;1257;60334;-67
2023/08/12 01:29:22;;;;;;;10.00;6.00;;;;;;;23.86;60.63;100108.43;107986;1253;73192;-68
2023/08/12 01:31:52;;;;;;;8.20;5.90;;;;;;;23.92;60.45;100107.20;108074;1253;59170;-67
2023/08/12 01:34:31;;;;;;;9.20;6.10;;;;;;;23.92;60.35;100102.37;108099;1253;72706;-69
2023/08/12 01:36:58;;;;;;;9.20;5.80;;;;;;;24.13;59.64;100103.08;108023;1253;61975;-68
2023/08/12 01:39:25;;;;;;;10.50;6.00;;;;;;;24.01;59.88;100105.65;107882;1253;60093;-68
2023/08/12 01:41:53;;;;;;;14.50;6.00;;;;;;;23.85;60.23;100103.68;107998;1253;73362;-67
2023/08/12 01:44:19;;;;;;;8.90;5.60;;;;;;;23.66;60.70;100102.00;107788;1253;70387;-66
2023/08/12 01:46:46;;;;;;;10.10;6.00;;;;;;;23.44;61.15;100098.98;108077;1253;72940;-68
2023/08/12 01:49:12;;;;;;;8.70;5.50;;;;;;;23.48;61.06;100097.20;107987;1259;63259;-67
2023/08/12 01:51:39;;;;;;;9.40;6.10;;;;;;;23.55;60.54;100098.17;107987;1253;60711;-69
2023/08/12 01:54:06;;;;;;;11.40;6.30;;;;;;;23.44;60.62;100100.11;107998;1253;73376;-68
2023/08/12 01:56:33;;;;;;;12.30;6.30;;;;;;;23.47;60.29;100097.66;108095;1253;70463;-68
2023/08/12 01:59:00;;;;;;;9.60;6.60;;;;;;;23.47;60.29;100100.40;108094;1253;71675;-68
2023/08/12 02:01:26;;;;;;;10.00;6.20;;;;;;;23.67;59.38;100099.79;107949;1260;59543;-67
2023/08/12 02:03:53;;;;;;;11.00;6.50;;;;;;;23.48;59.66;100104.25;108004;1253;60301;-67
2023/08/12 02:06:20;;;;;;;9.70;6.50;;;;;;;23.50;59.46;100101.87;108120;1253;71810;-68
2023/08/12 02:08:47;;;;;;;10.20;6.90;;;;;;;23.47;59.19;100106.43;107951;1253;70130;-67
2023/08/12 02:11:13;;;;;;;8.30;6.10;;;;;;;23.35;59.61;100108.41;107964;1253;72812;-67
2023/08/12 02:13:40;;;;;;;13.20;6.60;;;;;;;23.26;59.59;100109.45;107905;1256;61966;-68
2023/08/12 02:16:09;;;;;;;8.00;5.30;;;;;;;23.45;59.02;100110.75;108049;1253;59988;-68
2023/08/12 02:18:36;;;;;;;14.20;6.90;;;;;;;23.54;58.78;100113.10;108180;1253;72118;-68
2023/08/12 02:21:03;;;;;;;9.80;6.20;;;;;;;23.74;57.99;100111.34;108083;1253;59633;-68
2023/08/12 02:23:30;;;;;;;11.40;6.50;;;;;;;23.63;58.24;100117.51;108094;1253;71387;-67
2023/08/12 02:25:56;;;;;;;11.00;6.90;;;;;;;23.68;57.80;100116.01;108065;1253;59501;-68
2023/08/12 02:28:23;;;;;;;10.00;6.10;;;;;;;23.64;57.82;100109.20;108063;1253;60133;-65
2023/08/12 02:30:50;;;;;;;7.90;6.30;;;;;;;23.38;58.29;100105.65;108032;1253;72774;-67
2023/08/12 02:33:16;;;;;;;7.60;5.90;;;;;;;23.22;58.81;100106.73;107908;1253;70084;-68
2023/08/12 02:35:43;;;;;;;10.40;6.50;;;;;;;23.19;58.80;100105.91;108004;1256;73106;-69
2023/08/12 02:38:10;;;;;;;8.30;6.50;;;;;;;23.29;58.41;100107.02;108070;1257;60767;-68
2023/08/12 02:40:36;;;;;;;10.70;6.20;;;;;;;23.55;57.74;100105.70;108055;1253;60329;-68
2023/08/12 02:43:03;;;;;;;9.50;6.90;;;;;;;23.64;57.29;100105.05;108028;1257;75420;-69
2023/08/12 02:45:30;;;;;;;7.50;6.40;;;;;;;23.61;57.04;100109.98;108042;1253;70328;-67
2023/08/12 02:47:57;;;;;;;9.70;6.70;;;;;;;23.43;57.43;100106.79;107940;1256;72440;-67
2023/08/12 02:50:23;;;;;;;10.40;6.80;;;;;;;23.44;57.35;100107.81;108099;1253;60314;-68
2023/08/12 02:52:50;;;;;;;10.00;6.40;;;;;;;23.47;57.10;100103.63;107926;1253;60323;-67
2023/08/12 02:55:16;;;;;;;11.70;7.10;;;;;;;23.38;57.34;100100.51;108095;1253;60432;-68
2023/08/12 02:57:43;;;;;;;10.70;7.00;;;;;;;23.57;56.93;100100.83;108077;1253;70156;-68
2023/08/12 03:00:12;;;;;;;11.60;7.00;;;;;;;23.73;56.50;100103.58;108118;1253;72629;-68
2023/08/12 03:02:42;;;;;;;11.00;7.10;;;;;;;23.74;56.15;100105.45;108145;1253;61270;-67
2023/08/12 03:05:09;;;;;;;12.70;6.90;;;;;;;23.73;56.23;100106.20;108095;1253;60515;-67
2023/08/12 03:07:36;;;;;;;12.70;7.30;;;;;;;23.55;56.69;100104.85;107958;1253;73830;-67
2023/08/12 03:10:03;;;;;;;11.70;7.30;;;;;;;23.33;57.05;100103.73;107936;1253;67950;-67
2023/08/12 03:12:30;;;;;;;9.30;6.90;;;;;;;23.30;57.29;100098.91;107972;1260;72668;-68
2023/08/12 03:14:56;;;;;;;12.50;7.20;;;;;;;23.19;57.66;100099.17;108032;1258;61765;-68
2023/08/12 03:17:23;;;;;;;9.60;6.70;;;;;;;23.10;58.15;100094.38;108180;1253;60324;-66
2023/08/12 03:19:54;;;;;;;12.50;7.90;;;;;;;23.03;58.39;100100.73;107942;1261;73783;-68
2023/08/12 03:22:21;;;;;;;10.80;7.40;;;;;;;23.18;57.96;100099.55;108091;1253;69092;-65
2023/08/12 03:24:48;;;;;;;10.30;7.50;;;;;;;23.27;57.78;100101.65;108125;1256;70904;-67
2023/08/12 03:27:15;;;;;;;11.70;7.80;;;;;;;23.24;57.89;100104.64;108092;1253;60437;-68
2023/08/12 03:29:42;;;;;;;11.40;7.30;;;;;;;23.25;57.59;100105.41;108089;1253;60288;-67
2023/08/12 03:32:09;;;;;;;9.70;7.00;;;;;;;23.25;57.57;100102.69;107965;1253;73747;-68
2023/08/12 03:34:35;;;;;;;13.20;8.00;;;;;;;23.34;57.73;100104.23;108070;1257;70391;-68
2023/08/12 03:37:03;;;;;;;11.70;7.90;;;;;;;23.35;57.25;100106.52;107959;1253;72592;-69
2023/08/12 03:39:30;;;;;;;11.30;7.80;;;;;;;23.37;57.21;100108.29;107897;1256;60721;-69
2023/08/12 03:41:58;;;;;;;9.90;7.20;;;;;;;23.46;56.87;100107.48;107959;1253;60105;-68
2023/08/12 03:44:26;;;;;;;12.30;7.90;;;;;;;23.57;56.60;100106.58;108182;1253;73646;-66
2023/08/12 03:46:52;;;;;;;10.30;8.00;;;;;;;23.48;56.60;100107.81;108036;1252;70651;-67
2023/08/12 03:49:18;;;;;;;12.70;7.80;;;;;;;23.30;57.02;100106.02;108107;1253;60586;-68
2023/08/12 03:51:49;;;;;;;13.80;8.00;;;;;;;23.31;57.10;100106.68;108166;1253;62009;-67
2023/08/12 03:54:15;;;;;;;14.80;8.90;;;;;;;23.17;57.70;100107.70;107939;1253;60327;-68
2023/08/12 03:56:42;;;;;;;11.00;7.90;;;;;;;23.42;57.31;100108.55;108073;1253;60412;-66
2023/08/12 03:59:08;;;;;;;10.10;7.80;;;;;;;23.76;56.70;100108.63;108092;1253;57992;-69
2023/08/12 04:01:37;;;;;;;11.60;8.10;;;;;;;23.98;56.07;100110.73;108117;1253;72501;-67
2023/08/12 04:04:04;;;;;;;11.30;7.50;;;;;;;24.04;55.65;100110.68;108146;1253;61826;-68
2023/08/12 04:06:31;;;;;;;11.70;8.20;;;;;;;23.77;56.12;100109.60;108120;1253;60509;-68
2023/08/12 04:08:57;;;;;;;11.00;7.30;;;;;;;23.85;55.67;100105.46;108107;1253;74181;-69
2023/08/12 04:11:24;;;;;;;10.60;7.80;;;;;;;24.04;55.15;100107.26;108097;1253;70350;-69
2023/08/12 04:13:51;;;;;;;12.20;8.10;;;;;;;24.13;54.77;100105.54;108122;1254;71833;-66
2023/08/12 04:16:17;;;;;;;11.00;7.70;;;;;;;24.06;54.58;100102.50;108030;1253;62358;-67
2023/08/12 04:18:44;;;;;;;14.00;8.00;;;;;;;23.87;55.33;100104.79;107990;1253;60297;-67
2023/08/12 04:21:12;;;;;;;12.70;7.90;;;;;;;24.08;54.61;100108.31;108128;1253;73613;-67
2023/08/12 04:23:38;;;;;;;11.60;7.60;;;;;;;24.27;53.95;100110.89;108116;1253;70012;-68
2023/08/12 04:26:05;;;;;;;12.70;7.90;;;;;;;24.21;54.12;100112.20;107961;1253;72658;-68
2023/08/12 04:28:32;;;;;;;12.00;8.30;;;;;;;24.04;54.48;100112.49;108124;1257;61788;-69
2023/08/12 04:30:59;;;;;;;10.30;8.40;;;;;;;24.02;54.77;100107.45;108178;1253;60319;-69
2023/08/12 04:33:25;;;;;;;11.30;8.80;;;;;;;23.98;54.70;100110.14;108146;1253;73593;-68
2023/08/12 04:35:52;;;;;;;9.60;8.00;;;;;;;24.13;54.56;100107.35;108232;1253;59154;-69
2023/08/12 04:38:20;;;;;;;10.00;8.20;;;;;;;24.39;53.92;100114.27;107929;1253;71587;-67
2023/08/12 04:40:48;;;;;;;11.00;7.50;;;;;;;24.47;53.61;100119.21;108148;1253;61817;-67
2023/08/12 04:43:14;;;;;;;11.10;7.80;;;;;;;24.46;53.70;100124.33;108105;1253;60394;-68
2023/08/12 04:45:47;;;;;;;10.70;8.40;;;;;;;24.47;53.58;100123.91;107975;1253;73653;-68
2023/08/12 04:48:14;;;;;;;10.70;8.00;;;;;;;24.12;54.54;100117.63;108156;1253;69204;-69
2023/08/12 04:50:43;;;;;;;10.20;8.20;;;;;;;24.08;54.70;100117.15;108154;1253;72689;-70
2023/08/12 04:53:10;;;;;;;13.00;8.00;;;;;;;24.45;53.61;100117.23;108137;1253;61643;-69
2023/08/12 04:55:38;;;;;;;10.00;7.80;;;;;;;24.65;53.21;100114.33;107938;1253;60322;-68
2023/08/12 04:58:05;;;;;;;12.50;8.60;;;;;;;24.60;53.49;100117.30;108194;1257;72821;-67
2023/08/12 05:00:32;;;;;;;10.00;8.00;;;;;;;24.64;53.38;100117.23;107943;1253;68960;-67
2023/08/12 05:02:59;;;;;;;15.30;8.60;;;;;;;24.82;52.97;100119.75;108150;1253;72572;-69
2023/08/12 05:05:27;;;;;;;12.80;8.00;;;;;;;24.40;53.82;100125.25;108160;1253;61786;-68
2023/08/12 05:07:53;;;;;;;9.70;7.70;;;;;;;24.28;54.51;100125.90;108110;1253;60924;-68
2023/08/12 05:10:20;;;;;;;10.10;7.90;;;;;;;24.54;53.78;100126.08;107943;1253;73712;-69
2023/08/12 05:12:48;;;;;;;11.30;8.00;;;;;;;24.68;53.35;100122.59;108139;1253;70207;-70
2023/08/12 05:15:15;;;;;;;9.40;7.80;;;;;;;24.69;53.33;100122.38;108125;1253;71285;-68
2023/08/12 05:17:42;;;;;;;11.60;7.80;;;;;;;24.48;53.70;100118.36;108159;1253;62365;-69
2023/08/12 05:20:10;;;;;;;9.00;7.40;;;;;;;24.58;53.21;100114.59;108175;1253;60317;-69
2023/08/12 05:22:37;;;;;;;14.60;7.80;;;;;;;24.62;53.12;100118.01;108033;1253;73844;-69
2023/08/12 05:25:05;;;;;;;8.60;6.80;;;;;;;24.90;52.62;100118.09;108143;1256;70111;-69
2023/08/12 05:27:31;;;;;;;11.70;7.60;;;;;;;25.11;52.22;100118.27;108240;1257;72687;-69
2023/08/12 05:29:58;;;;;;;8.90;7.50;;;;;;;25.32;51.90;100116.05;108450;1257;59860;-68
2023/08/12 05:32:24;;;;;;;9.80;7.60;;;;;;;25.41;51.60;100118.89;108427;1253;60432;-68
2023/08/12 05:34:55;;;;;;;9.50;7.50;;;;;;;25.75;51.02;100110.27;108428;1253;58572;-67
2023/08/12 05:37:22;;;;;;;8.00;6.50;;;;;;;26.08;50.18;100113.29;108231;1253;69131;-69
2023/08/12 05:39:48;;;;;;;10.90;6.50;;;;;;;26.32;49.35;100112.19;108243;1253;72367;-69
2023/08/12 05:42:18;;;;;;;10.10;6.90;;;;;;;26.59;48.75;100106.89;108148;1257;62203;-69
2023/08/12 05:44:45;;;;;;;10.00;6.20;;;;;;;27.09;47.37;100105.56;108199;1256;60287;-68
2023/08/12 05:47:13;;;;;;;10.60;6.40;;;;;;;27.86;45.60;100108.48;108183;1253;73916;-69
2023/08/12 05:49:43;;;;;;;7.30;5.70;;;;;;;28.63;43.98;100106.93;108187;1253;70064;-70
2023/08/12 05:52:13;;;;;;;7.40;5.60;;;;;;;29.20;42.91;100103.48;108119;1253;71763;-68
2023/08/12 05:54:40;;;;;;;8.80;6.20;;;;;;;29.63;41.57;100098.26;107963;1253;61743;-67
2023/08/12 05:57:07;;;;;;;8.00;5.20;;;;;;;29.45;41.44;100102.92;108112;1253;59197;-68
2023/08/12 05:59:34;;;;;;;8.70;5.50;;;;;;;29.69;40.55;100105.34;108125;1253;72707;-68
2023/08/12 06:02:01;;;;;;;8.10;5.40;;;;;;;29.80;40.60;100102.84;108119;1253;70629;-68
2023/08/12 06:04:29;;;;;;;7.20;5.40;;;;;;;30.28;40.60;100103.08;108024;1253;71031;-70
2023/08/12 06:06:55;;;;;;;7.80;5.30;;;;;;;30.68;39.86;100098.40;108092;1253;59249;-70
2023/08/12 06:09:22;;;;;;;9.50;5.40;;;;;;;31.03;38.51;100097.04;108097;1256;60323;-68
2023/08/12 06:11:48;;;;;;;7.10;5.40;;;;;;;31.57;38.13;100099.02;107995;1253;73463;-68
2023/08/12 06:14:15;;;;;;;12.70;4.80;;;;;;;32.39;36.70;100101.15;108127;1257;70153;-69
2023/08/12 06:16:42;;;;;;;9.50;5.00;;;;;;;32.75;35.33;100104.10;108096;1253;72635;-69
2023/08/12 06:19:08;;;;;;;7.60;4.70;;;;;;;33.01;34.63;100100.58;108110;1253;59155;-69
2023/08/12 06:21:36;;;;;;;7.50;4.90;;;;;;;33.23;34.19;100093.40;108105;1253;60342;-69
2023/08/12 06:24:02;;;;;;;6.80;4.70;;;;;;;32.95;34.22;100090.77;108110;1253;60318;-69
2023/08/12 06:26:29;;;;;;;6.00;4.80;;;;;;;32.89;34.42;100086.38;107905;1253;60972;-70
2023/08/12 06:28:56;;;;;;;10.50;4.70;;;;;;;32.80;34.81;100091.25;108070;1253;73109;-71
2023/08/12 06:31:23;;;;;;;7.70;4.90;;;;;;;32.21;35.45;100087.85;108114;1253;60407;-72
2023/08/12 06:33:49;;;;;;;9.80;4.70;;;;;;;31.59;36.43;100089.80;108100;1253;59032;-69
2023/08/12 06:36:16;;;;;;;8.20;4.70;;;;;;;31.54;36.48;100089.53;108147;1253;73933;-70
2023/08/12 06:38:42;;;;;;;8.90;5.10;;;;;;;31.30;36.74;100084.70;108020;1253;68824;-69
2023/08/12 06:41:09;;;;;;;13.60;4.40;;;;;;;31.35;36.84;100084.26;108120;1253;71806;-69
2023/08/12 06:43:36;;;;;;;8.90;4.80;;;;;;;31.13;37.10;100079.66;108168;1253;60391;-69
2023/08/12 06:46:03;;;;;;;9.00;4.70;;;;;;;30.73;37.96;100083.17;108198;1257;60410;-70
2023/08/12 06:48:29;;;;;;;9.60;5.20;;;;;;;30.49;38.32;100086.73;108140;1257;73930;-69
2023/08/12 06:50:58;;;;;;;5.60;4.20;;;;;;;30.69;38.18;100085.95;108207;1253;59027;-70
2023/08/12 06:53:26;;;;;;;9.60;4.80;;;;;;;30.77;38.02;100088.98;108221;1254;72687;-69
2023/08/12 06:55:52;;;;;;;6.10;4.40;;;;;;;30.55;38.25;100094.33;108142;1253;60300;-69
2023/08/12 06:58:19;;;;;;;9.20;4.60;;;;;;;29.66;39.48;100097.76;108181;1254;60512;-69
2023/08/12 07:00:45;;;;;;;7.30;4.40;;;;;;;29.40;40.29;100100.63;108154;1253;60321;-69
2023/08/12 07:03:12;;;;;;;6.50;5.20;;;;;;;29.53;39.97;100098.77;108159;1253;70657;-69
2023/08/12 07:05:38;;;;;;;6.00;4.60;;;;;;;29.37;40.33;100101.54;108170;1253;72369;-69
2023/08/12 07:08:05;;;;;;;5.60;4.40;;;;;;;29.53;40.43;100099.52;108122;1253;60445;-70
2023/08/12 07:10:32;;;;;;;9.30;4.90;;;;;;;29.56;40.39;100095.49;108163;1253;60319;-70
2023/08/12 07:12:59;;;;;;;10.50;4.80;;;;;;;29.43;40.52;100098.44;108160;1257;73899;-69
2023/08/12 07:15:28;;;;;;;7.60;4.40;;;;;;;29.40;40.54;100093.51;108153;1253;70440;-70
2023/08/12 07:17:57;;;;;;;7.00;5.00;;;;;;;29.33;40.62;100101.27;108206;1253;73459;-70
2023/08/12 07:20:25;;;;;;;8.00;4.40;;;;;;;29.37;40.68;100100.48;108178;1253;60276;-72
2023/08/12 07:22:51;;;;;;;8.60;5.00;;;;;;;29.84;40.00;100096.93;108169;1253;60211;-69
2023/08/12 07:25:18;;;;;;;8.70;4.30;;;;;;;30.26;39.48;100096.55;108113;1253;73694;-70
2023/08/12 07:27:44;;;;;;;5.20;3.90;;;;;;;30.82;38.60;100093.41;108107;1253;69005;-70
2023/08/12 07:30:11;;;;;;;7.90;4.00;;;;;;;31.25;37.29;100100.39;108061;1257;72734;-69
2023/08/12 07:32:39;;;;;;;10.60;4.10;;;;;;;31.89;36.12;100100.16;107904;1258;60420;-70
2023/08/12 07:35:05;;;;;;;6.50;3.70;;;;;;;32.58;35.40;100102.90;108132;1253;60509;-70
2023/08/12 07:37:32;;;;;;;5.20;3.40;;;;;;;33.62;33.97;100101.98;107971;1253;73880;-70
2023/08/12 07:39:59;;;;;;;4.60;3.20;;;;;;;34.08;32.93;100101.23;108230;1257;61545;-70
2023/08/12 07:42:26;;;;;;;4.70;3.60;;;;;;;34.33;31.97;100099.98;108130;1253;64084;-70
2023/08/12 07:44:53;;;;;;;6.10;3.40;;;;;;;34.50;31.25;100096.70;108127;1257;60346;-70
2023/08/12 07:47:19;;;;;;;5.30;3.60;;;;;;;34.25;31.14;100101.25;108189;1253;60309;-70
2023/08/12 07:49:46;;;;;;;6.60;3.30;;;;;;;34.12;31.00;100097.58;108160;1253;60342;-70
2023/08/12 07:52:12;;;;;;;5.90;3.70;;;;;;;34.01;31.51;100099.88;108125;1253;62090;-69
2023/08/12 07:54:39;;;;;;;9.10;3.40;;;;;;;33.89;31.67;100100.70;108148;1253;63978;-70
2023/08/12 07:57:06;;;;;;;6.20;3.40;;;;;;;33.46;32.45;100103.61;108137;1253;60486;-70
2023/08/12 07:59:33;;;;;;;8.10;3.60;;;;;;;33.46;32.80;100106.89;108154;1253;59551;-70
2023/08/12 08:01:59;;;;;;;15.90;4.00;;;;;;;33.37;33.03;100106.17;108161;1253;60312;-69
2023/08/12 08:04:26;;;;;;;9.00;4.10;;;;;;;33.27;33.29;100104.00;108008;1253;70337;-70
2023/08/12 08:06:53;;;;;;;6.20;3.80;;;;;;;33.71;32.62;100098.91;108172;1253;72804;-70
2023/08/12 08:09:19;;;;;;;6.90;3.50;;;;;;;33.71;32.53;100101.12;108190;1253;59531;-69
2023/08/12 08:11:46;;;;;;;9.60;4.00;;;;;;;33.93;32.33;100099.11;108172;1254;60418;-70
2023/08/12 08:14:13;;;;;;;7.90;3.70;;;;;;;33.61;32.58;100105.58;108012;1253;65009;-70
2023/08/12 08:16:41;;;;;;;6.40;3.60;;;;;;;33.55;32.86;100102.09;108059;1253;61613;-69
2023/08/12 08:19:09;;;;;;;7.10;3.70;;;;;;;33.38;32.70;100100.48;108075;1253;62892;-70
2023/08/12 08:21:39;;;;;;;5.70;4.00;;;;;;;33.43;32.81;100099.41;108222;1253;60239;-69
2023/08/12 08:24:06;;;;;;;6.90;4.10;;;;;;;33.07;33.53;100103.58;108187;1257;60397;-70
2023/08/12 08:26:32;;;;;;;4.50;3.40;;;;;;;33.02;33.56;100100.75;108183;1253;73668;-70
2023/08/12 08:28:59;;;;;;;6.70;3.60;;;;;;;32.67;33.96;100104.41;108198;1253;71302;-71
2023/08/12 08:31:26;;;;;;;5.50;3.80;;;;;;;32.87;33.85;100104.96;108184;1253;72680;-69
2023/08/12 08:33:52;;;;;;;6.40;3.50;;;;;;;32.74;33.81;100102.60;108150;1254;59704;-70
2023/08/12 08:36:19;;;;;;;7.50;3.60;;;;;;;32.43;34.15;100102.14;108132;1254;60336;-70
2023/08/12 08:38:46;;;;;;;5.00;3.50;;;;;;;32.22;34.23;100101.03;108200;1254;74327;-69
2023/08/12 08:41:12;;;;;;;7.20;4.00;;;;;;;32.37;34.39;100096.73;108207;1257;60328;-70
2023/08/12 08:43:40;;;;;;;5.40;3.50;;;;;;;32.33;34.27;100096.45;108170;1253;59058;-70
2023/08/12 08:46:06;;;;;;;8.90;3.80;;;;;;;32.50;34.09;100096.20;107998;1254;60297;-70
2023/08/12 08:48:33;;;;;;;7.30;4.10;;;;;;;32.69;33.93;100094.01;108048;1253;60201;-70
2023/08/12 08:51:03;;;;;;;6.70;4.00;;;;;;;32.69;34.00;100102.27;108141;1252;73646;-70
2023/08/12 08:53:30;;;;;;;5.20;3.70;;;;;;;32.58;34.13;100104.39;108010;1253;60298;-69
2023/08/12 08:56:00;;;;;;;6.80;3.70;;;;;;;32.56;34.24;100100.10;108020;1258;63889;-70
2023/08/12 08:58:28;;;;;;;5.20;3.50;;;;;;;32.56;34.40;100100.05;108161;1259;60339;-70
2023/08/12 09:00:55;;;;;;;8.00;4.00;;;;;;;32.25;34.79;100096.69;108172;1253;60699;-70
2023/08/12 09:03:21;;;;;;;9.30;3.80;;;;;;;32.19;35.15;100099.08;108155;1254;60571;-70
2023/08/12 09:05:47;;;;;;;7.60;3.60;;;;;;;32.27;35.06;100099.83;107997;1257;60396;-70
2023/08/12 09:08:14;;;;;;;7.70;3.60;;;;;;;32.29;34.62;100101.34;108027;1254;59015;-70
2023/08/12 09:10:40;;;;;;;11.60;3.70;;;;;;;32.22;34.05;100090.67;108175;1255;59551;-70
2023/08/12 09:13:08;;;;;;;6.20;3.60;;;;;;;32.26;34.02;100096.49;108164;1253;60557;-69
2023/08/12 09:15:35;;;;;;;6.70;3.70;;;;;;;32.55;34.05;100097.48;108156;1254;73654;-69
2023/08/12 09:18:04;;;;;;;11.10;3.40;;;;;;;32.91;33.68;100092.94;108203;1255;68756;-69
2023/08/12 09:20:30;;;;;;;7.00;3.30;;;;;;;33.27;32.79;100093.84;107993;1255;72496;-68
2023/08/12 09:22:58;;;;;;;5.10;3.30;;;;;;;33.42;32.08;100091.27;108115;1257;60718;-68
2023/08/12 09:25:29;;;;;;;5.20;3.40;;;;;;;33.60;31.99;100095.80;108106;1254;59693;-69
2023/08/12 09:27:58;;;;;;;6.30;2.90;;;;;;;33.65;31.49;100098.34;107993;1255;64919;-70
2023/08/12 09:30:28;;;;;;;4.90;2.90;;;;;;;33.45;31.52;100101.64;108149;1253;61671;-70
2023/08/12 09:33:00;;;;;;;8.10;3.20;;;;;;;33.16;31.67;100104.14;108152;1255;62555;-70
2023/08/12 09:35:40;;;;;;;7.00;3.30;;;;;;;33.00;31.88;100106.74;108105;1254;60314;-69
2023/08/12 09:38:12;;;;;;;5.40;3.30;;;;;;;32.95;31.91;100108.35;108179;1254;60016;-70
2023/08/12 09:40:39;;;;;;;5.70;3.00;;;;;;;33.21;31.39;100109.19;108182;1254;73811;-69
2023/08/12 09:43:06;;;;;;;6.90;3.10;;;;;;;33.26;31.20;100110.45;108085;1254;60284;-69
2023/08/12 09:45:34;;;;;;;5.10;2.70;;;;;;;32.95;31.54;100121.02;108143;1257;63837;-70
2023/08/12 09:48:01;;;;;;;5.60;3.10;;;;;;;32.91;31.25;100121.02;108180;1254;60431;-70
2023/08/12 09:50:30;;;;;;;5.40;2.90;;;;;;;32.76;31.49;100119.85;107707;1254;60365;-70
2023/08/12 09:52:57;;;;;;;4.20;3.10;;;;;;;32.74;31.36;100120.42;108098;1254;73611;-70
2023/08/12 09:55:24;;;;;;;6.00;3.00;;;;;;;32.76;31.44;100116.92;108117;1256;60402;-70
2023/08/12 09:57:54;;;;;;;11.40;3.20;;;;;;;33.26;30.89;100116.88;108136;1256;71186;-69
2023/08/12 10:00:22;;;;;;;3.50;2.60;;;;;;;33.53;30.67;100112.14;108138;1254;60342;-71
2023/08/12 10:02:51;;;;;;;7.30;2.90;;;;;;;33.90;30.18;100113.90;108159;1256;60418;-70
2023/08/12 10:05:22;;;;;;;4.10;2.70;;;;;;;34.02;29.33;100118.62;108112;1254;65104;-71
2023/08/12 10:07:49;;;;;;;3.90;2.90;;;;;;;34.39;28.71;100123.61;108113;1256;61438;-70
2023/08/12 10:10:16;;;;;;;4.10;2.40;;;;;;;34.37;29.11;100120.41;107997;1257;64040;-70
2023/08/12 10:12:43;;;;;;;4.90;2.70;;;;;;;34.33;28.81;100120.38;108038;1254;60449;-68
2023/08/12 10:15:10;;;;;;;4.90;2.70;;;;;;;34.22;28.87;100122.42;108048;1255;60171;-69
2023/08/12 10:17:36;;;;;;;7.90;3.00;;;;;;;34.17;29.08;100128.05;108136;1257;63700;-70
2023/08/12 10:20:14;;;;;;;4.30;3.00;;;;;;;33.87;29.01;100125.64;108050;1254;62045;-70
2023/08/12 10:22:40;;;;;;;;;;;;;;;33.77;29.33;100128.56;108190;1254;64171;-70
2023/08/12 10:25:11;;;;;;;4.20;2.70;;;;;;;33.89;28.75;100126.80;108009;1260;59647;-71
2023/08/12 10:27:37;;;;;;;7.60;2.80;;;;;;;33.96;28.80;100122.94;108152;1257;60438;-71
2023/08/12 10:30:05;;;;;;;4.20;3.00;;;;;;;33.91;28.55;100126.10;108174;1255;65346;-70
2023/08/12 10:32:32;;;;;;;5.40;2.80;;;;;;;33.84;28.56;100122.89;107961;1254;61755;-69
2023/08/12 10:34:59;;;;;;;4.30;3.00;;;;;;;33.88;28.60;100117.98;107920;1254;63943;-69
2023/08/12 10:37:26;;;;;;;4.80;2.80;;;;;;;34.00;28.80;100121.39;107932;1253;59696;-70
2023/08/12 10:39:53;;;;;;;4.20;2.80;;;;;;;34.20;28.86;100124.77;108135;1253;60270;-69
2023/08/12 10:45:52;;;;;;;7.10;3.00;;;;;;;33.23;30.41;100126.06;104957;1289;600176;-69
2023/08/12 10:48:24;;;;;;;7.40;2.80;;;;;;;34.27;28.51;100116.66;107351;1264;59292;-70
2023/08/12 10:50:54;;;;;;;3.90;2.60;;;;;;;34.92;28.03;100119.15;107287;1263;59270;-69
2023/08/12 10:53:22;;;;;;;7.20;3.00;;;;;;;35.48;27.77;100111.61;108062;1254;62089;-69
2023/08/12 10:55:50;;;;;;;5.60;2.90;;;;;;;35.99;26.90;100111.23;108142;1254;61402;-69
2023/08/12 10:58:26;;;;;;;7.20;3.00;;;;;;;36.41;26.18;100120.77;107941;1253;261050;-70
2023/08/12 11:00:57;;;;;;;6.20;2.60;;;;;;;36.60;25.62;100122.05;108295;1251;58975;-71
2023/08/12 11:03:24;;;;;;;5.40;2.80;;;;;;;36.62;25.42;100118.57;108288;1252;59304;-70
2023/08/12 11:05:55;;;;;;;7.10;2.60;;;;;;;36.66;25.35;100121.54;108201;1254;63736;-70
2023/08/12 11:08:26;;;;;;;4.20;2.20;;;;;;;36.61;24.97;100122.09;108303;1257;60100;-70
2023/08/12 11:10:55;;;;;;;8.20;3.00;;;;;;;36.23;25.83;100121.13;108215;1253;62702;-69
2023/08/12 11:13:27;;;;;;;6.90;2.60;;;;;;;35.91;26.17;100117.00;108226;1256;59582;-70
2023/08/12 11:16:06;;;;;;;5.00;3.20;;;;;;;36.25;25.24;100117.02;108296;1254;59573;-69
2023/08/12 11:18:33;;;;;;;4.40;2.30;;;;;;;36.45;25.25;100119.91;108213;1255;62797;-70